Time;durP1;ratioP1;P1;durP2;ratioP2;P2;SDS_P1;SDS_P2;PMS_P1;PMS_P2;Temp;Humidity;BMP_temperature;BMP_pressure;BME280_temperature;BME280_humidity;BME280_pressure;Samples;Min_cycle;Max_cycle;Signal;HPM_P1;HPM_P2
2022/12/18 00:01:23;;;;;;;1.63;1.30;;;;;;;;;;5025248;28;20056;-82
2022/12/18 00:03:48;;;;;;;1.55;1.35;;;;;;;;;;5029719;28;20055;-82
2022/12/18 00:06:15;;;;;;;3.67;1.98;;;;;;;;;;5020657;28;20063;-81
2022/12/18 00:08:44;;;;;;;2.15;1.48;;;;;;;;;;5031772;28;20458;-83
2022/12/18 00:11:16;;;;;;;0.80;0.77;;;;;;;;;;5027249;28;20075;-82
2022/12/18 00:13:42;;;;;;;2.88;1.83;;;;;;;;;;5021561;28;20091;-84
2022/12/18 00:16:11;;;;;;;5.88;2.30;;;;;;;;;;5020669;28;20022;-82
2022/12/18 00:18:37;;;;;;;1.95;1.75;;;;;;;;;;5017350;28;20052;-83
2022/12/18 00:21:05;;;;;;;2.75;1.63;;;;;;;;;;5025390;28;20061;-82
2022/12/18 00:23:31;;;;;;;2.33;1.65;;;;;;;;;;5024153;28;20500;-82
2022/12/18 00:26:02;;;;;;;3.15;1.90;;;;;;;;;;5026021;28;20021;-82
2022/12/18 00:28:28;;;;;;;2.53;1.60;;;;;;;;;;5020455;28;20497;-82
2022/12/18 00:31:04;;;;;;;4.32;2.58;;;;;;;;;;5023780;28;20030;-82
2022/12/18 00:33:30;;;;;;;2.50;1.77;;;;;;;;;;5025448;28;20125;-82
2022/12/18 00:36:10;;;;;;;4.43;2.30;;;;;;;;;;5026178;28;20033;-83
2022/12/18 00:38:36;;;;;;;6.97;3.50;;;;;;;;;;5021263;28;20074;-83
2022/12/18 00:41:02;;;;;;;2.72;1.55;;;;;;;;;;5022554;28;20033;-83
2022/12/18 00:43:28;;;;;;;2.50;1.88;;;;;;;;;;5029329;28;20025;-83
2022/12/18 00:45:54;;;;;;;5.15;2.67;;;;;;;;;;5021732;28;20144;-82
2022/12/18 00:48:19;;;;;;;2.05;1.65;;;;;;;;;;5021676;28;20057;-82
2022/12/18 00:50:44;;;;;;;2.47;1.85;;;;;;;;;;5022660;28;20040;-83
2022/12/18 00:53:10;;;;;;;1.48;1.33;;;;;;;;;;5023022;28;20026;-83
2022/12/18 00:55:39;;;;;;;2.55;1.98;;;;;;;;;;5023671;28;20043;-82
2022/12/18 00:58:04;;;;;;;1.23;1.13;;;;;;;;;;5018351;28;20022;-82
2022/12/18 01:00:29;;;;;;;4.53;1.95;;;;;;;;;;5016680;28;20533;-83
2022/12/18 01:02:55;;;;;;;1.75;1.48;;;;;;;;;;5018530;28;20079;-82
2022/12/18 01:05:20;;;;;;;2.15;1.85;;;;;;;;;;5016276;28;20032;-82
2022/12/18 01:07:46;;;;;;;3.05;1.88;;;;;;;;;;5021478;28;20033;-83
2022/12/18 01:10:12;;;;;;;1.25;1.15;;;;;;;;;;5019542;28;20041;-83
2022/12/18 01:12:38;;;;;;;1.35;1.25;;;;;;;;;;5024726;28;20049;-82
2022/12/18 01:15:06;;;;;;;3.20;1.42;;;;;;;;;;5026156;28;20048;-82
2022/12/18 01:17:32;;;;;;;2.20;1.50;;;;;;;;;;5024485;28;20030;-82
2022/12/18 01:19:57;;;;;;;3.60;2.58;;;;;;;;;;5023774;28;20036;-83
2022/12/18 01:22:23;;;;;;;1.67;1.10;;;;;;;;;;5025590;28;20450;-82
2022/12/18 01:24:48;;;;;;;2.38;1.90;;;;;;;;;;5031724;28;20108;-83
2022/12/18 01:27:14;;;;;;;1.52;1.40;;;;;;;;;;5016371;28;20030;-81
2022/12/18 01:29:39;;;;;;;3.40;2.33;;;;;;;;;;5018440;28;20025;-82
2022/12/18 01:32:05;;;;;;;5.85;2.85;;;;;;;;;;5029326;28;20040;-81
2022/12/18 01:34:30;;;;;;;3.22;1.90;;;;;;;;;;5019855;28;20041;-82
2022/12/18 01:36:56;;;;;;;4.22;3.00;;;;;;;;;;5022000;28;20036;-83
2022/12/18 01:39:22;;;;;;;3.15;2.58;;;;;;;;;;5020170;28;20021;-81
2022/12/18 01:42:02;;;;;;;4.30;2.70;;;;;;;;;;5015601;28;20029;-82
2022/12/18 01:44:57;;;;;;;4.40;2.88;;;;;;;;;;5024395;28;20056;-82
2022/12/18 01:47:54;;;;;;;4.25;1.95;;;;;;;;;;5017341;28;20029;-81
2022/12/18 01:50:32;;;;;;;3.08;2.13;;;;;;;;;;5025622;28;20037;-82
2022/12/18 01:53:09;;;;;;;3.20;2.33;;;;;;;;;;5022902;28;20025;-81
2022/12/18 01:55:41;;;;;;;2.95;2.25;;;;;;;;;;5018399;28;20053;-81
2022/12/18 01:58:06;;;;;;;4.90;2.97;;;;;;;;;;5017853;28;20044;-82
2022/12/18 02:00:32;;;;;;;4.32;2.35;;;;;;;;;;5021256;28;20485;-83
2022/12/18 02:02:57;;;;;;;2.50;2.30;;;;;;;;;;5023651;28;20025;-82
2022/12/18 02:05:49;;;;;;;5.63;3.00;;;;;;;;;;5023476;28;20030;-82
2022/12/18 02:08:21;;;;;;;4.45;2.53;;;;;;;;;;5010377;28;20048;-82
2022/12/18 02:11:01;;;;;;;3.88;2.55;;;;;;;;;;5024587;28;20025;-82
2022/12/18 02:13:26;;;;;;;2.65;2.35;;;;;;;;;;5012085;28;20048;-82
2022/12/18 02:16:24;;;;;;;5.18;2.60;;;;;;;;;;5021034;28;20033;-82
2022/12/18 02:18:57;;;;;;;3.90;2.33;;;;;;;;;;5023315;28;20033;-82
2022/12/18 02:21:53;;;;;;;3.17;2.40;;;;;;;;;;5025298;28;20030;-82
2022/12/18 02:24:40;;;;;;;3.60;2.20;;;;;;;;;;5024613;28;20022;-83
2022/12/18 02:27:08;;;;;;;2.97;2.28;;;;;;;;;;5018839;28;20022;-82
2022/12/18 02:29:55;;;;;;;4.43;2.72;;;;;;;;;;5024048;28;20029;-82
2022/12/18 02:32:28;;;;;;;2.25;1.85;;;;;;;;;;5024047;28;20042;-83
2022/12/18 02:34:55;;;;;;;2.65;2.00;;;;;;;;;;5017052;28;20026;-83
2022/12/18 02:37:22;;;;;;;6.28;2.85;;;;;;;;;;5027087;28;20026;-83
2022/12/18 02:39:49;;;;;;;5.20;3.17;;;;;;;;;;5017228;28;20029;-82
2022/12/18 02:42:15;;;;;;;4.28;2.72;;;;;;;;;;5018566;28;20037;-83
2022/12/18 02:44:46;;;;;;;2.67;1.95;;;;;;;;;;5024991;28;20058;-83
2022/12/18 02:47:14;;;;;;;1.70;1.60;;;;;;;;;;5019071;28;20132;-83
2022/12/18 02:50:18;;;;;;;3.03;2.28;;;;;;;;;;5021932;28;20029;-82
2022/12/18 02:52:55;;;;;;;2.75;2.10;;;;;;;;;;5025595;28;20040;-81
2022/12/18 02:55:51;;;;;;;2.65;2.13;;;;;;;;;;5017769;28;20068;-82
2022/12/18 02:58:28;;;;;;;3.25;2.40;;;;;;;;;;5018317;28;20022;-80
2022/12/18 03:01:03;;;;;;;3.05;1.75;;;;;;;;;;5022106;28;20053;-81
2022/12/18 03:03:39;;;;;;;2.08;1.50;;;;;;;;;;5015543;28;20029;-81
2022/12/18 03:06:14;;;;;;;1.63;1.45;;;;;;;;;;5023266;28;20112;-83
2022/12/18 03:08:44;;;;;;;3.22;2.35;;;;;;;;;;5024881;28;20030;-82
2022/12/18 03:11:12;;;;;;;2.10;1.73;;;;;;;;;;5019239;28;20029;-83
2022/12/18 03:13:50;;;;;;;1.70;1.38;;;;;;;;;;5025053;28;20052;-81
2022/12/18 03:16:26;;;;;;;2.15;1.67;;;;;;;;;;5025853;28;20108;-82
2022/12/18 03:18:57;;;;;;;3.67;2.33;;;;;;;;;;5021985;28;20021;-81
2022/12/18 03:21:28;;;;;;;3.08;2.17;;;;;;;;;;5024607;28;20029;-82
2022/12/18 03:23:55;;;;;;;2.13;1.60;;;;;;;;;;5027309;28;20033;-82
2022/12/18 03:26:25;;;;;;;2.67;1.90;;;;;;;;;;5021185;28;20032;-81
2022/12/18 03:28:55;;;;;;;2.28;1.85;;;;;;;;;;5020696;28;20021;-82
2022/12/18 03:31:23;;;;;;;1.55;1.27;;;;;;;;;;5020409;28;20032;-82
2022/12/18 03:33:59;;;;;;;4.60;2.22;;;;;;;;;;5024012;28;20500;-83
2022/12/18 03:36:26;;;;;;;4.45;2.03;;;;;;;;;;5019293;28;20030;-82
2022/12/18 03:38:51;;;;;;;3.78;1.85;;;;;;;;;;5028200;28;20117;-82
2022/12/18 03:41:33;;;;;;;3.13;2.20;;;;;;;;;;5022149;28;20057;-83
2022/12/18 03:44:07;;;;;;;1.80;1.25;;;;;;;;;;5021130;28;20084;-81
2022/12/18 03:46:41;;;;;;;1.35;1.10;;;;;;;;;;5027127;28;20021;-82
2022/12/18 03:49:35;;;;;;;3.25;1.58;;;;;;;;;;5022767;28;20038;-83
2022/12/18 03:52:15;;;;;;;2.20;1.42;;;;;;;;;;5021892;28;20037;-83
2022/12/18 03:54:42;;;;;;;2.80;1.88;;;;;;;;;;5024606;28;20493;-81
2022/12/18 03:57:20;;;;;;;0.80;0.80;;;;;;;;;;5023492;28;20041;-82
2022/12/18 03:59:49;;;;;;;1.20;1.08;;;;;;;;;;5027998;28;20060;-81
2022/12/18 04:02:17;;;;;;;0.77;0.77;;;;;;;;;;5027770;28;20042;-82
2022/12/18 04:04:44;;;;;;;2.88;2.55;;;;;;;;;;5026377;28;20036;-82
2022/12/18 04:07:10;;;;;;;1.75;1.65;;;;;;;;;;5022718;28;20028;-82
2022/12/18 04:09:38;;;;;;;1.58;1.33;;;;;;;;;;5023510;28;20058;-81
2022/12/18 04:12:04;;;;;;;2.58;1.00;;;;;;;;;;5024527;28;20160;-83
2022/12/18 04:14:29;;;;;;;2.03;1.20;;;;;;;;;;5023525;28;20065;-81
2022/12/18 04:16:54;;;;;;;1.50;1.17;;;;;;;;;;5023519;28;20055;-81
2022/12/18 04:19:20;;;;;;;1.90;1.13;;;;;;;;;;5019720;28;20021;-81
2022/12/18 04:21:45;;;;;;;4.18;1.27;;;;;;;;;;5020625;28;20037;-81
2022/12/18 04:24:11;;;;;;;1.42;0.90;;;;;;;;;;5024750;28;20971;-82
2022/12/18 04:26:36;;;;;;;1.98;1.23;;;;;;;;;;5020890;28;20028;-82
2022/12/18 04:29:02;;;;;;;3.70;2.08;;;;;;;;;;5023688;28;20037;-81
2022/12/18 04:31:27;;;;;;;2.20;1.08;;;;;;;;;;5023036;28;20037;-85
2022/12/18 04:33:53;;;;;;;3.30;1.50;;;;;;;;;;5024799;28;20274;-80
2022/12/18 04:36:18;;;;;;;1.27;1.10;;;;;;;;;;5022426;28;20436;-81
2022/12/18 04:38:44;;;;;;;0.85;0.80;;;;;;;;;;5021581;28;20021;-81
2022/12/18 04:41:09;;;;;;;2.63;1.50;;;;;;;;;;5022468;28;20025;-82
2022/12/18 04:43:34;;;;;;;2.00;1.35;;;;;;;;;;5020020;28;20040;-80
2022/12/18 04:46:08;;;;;;;2.85;1.38;;;;;;;;;;5013825;28;20033;-80
2022/12/18 04:48:34;;;;;;;0.60;0.60;;;;;;;;;;5015258;28;20049;-79
2022/12/18 04:50:59;;;;;;;2.80;1.15;;;;;;;;;;5016343;28;20441;-81
2022/12/18 04:53:25;;;;;;;3.80;2.50;;;;;;;;;;5012594;28;20125;-80
2022/12/18 04:55:50;;;;;;;2.15;1.45;;;;;;;;;;5015374;28;20034;-81
2022/12/18 04:58:16;;;;;;;3.83;1.90;;;;;;;;;;5016600;28;20393;-82
2022/12/18 05:00:41;;;;;;;1.75;1.48;;;;;;;;;;5015762;28;20425;-81
2022/12/18 05:03:07;;;;;;;5.07;1.90;;;;;;;;;;5015497;28;20065;-81
2022/12/18 05:05:35;;;;;;;2.38;1.20;;;;;;;;;;5015503;28;20025;-78
2022/12/18 05:08:00;;;;;;;2.25;1.52;;;;;;;;;;5014993;28;20417;-81
2022/12/18 05:10:26;;;;;;;4.20;1.63;;;;;;;;;;5017551;28;20079;-82
2022/12/18 05:13:01;;;;;;;3.67;2.40;;;;;;;;;;5026364;28;20036;-82
2022/12/18 05:15:31;;;;;;;1.15;1.05;;;;;;;;;;5022938;28;20389;-81
2022/12/18 05:17:57;;;;;;;3.40;2.05;;;;;;;;;;5019271;28;20419;-81
2022/12/18 05:20:23;;;;;;;1.90;1.25;;;;;;;;;;5021913;28;20477;-81
2022/12/18 05:22:49;;;;;;;2.00;1.23;;;;;;;;;;5025490;28;20033;-78
2022/12/18 05:25:14;;;;;;;2.28;1.52;;;;;;;;;;5017579;28;20030;-82
2022/12/18 05:27:40;;;;;;;4.45;2.60;;;;;;;;;;5022772;28;20112;-83
2022/12/18 05:30:06;;;;;;;2.80;1.67;;;;;;;;;;5022440;28;20033;-81
2022/12/18 05:32:32;;;;;;;2.80;1.65;;;;;;;;;;5020113;28;20076;-81
2022/12/18 05:34:57;;;;;;;4.10;1.67;;;;;;;;;;5018529;28;20045;-82
2022/12/18 05:37:22;;;;;;;1.50;1.23;;;;;;;;;;5023585;28;20049;-83
2022/12/18 05:39:48;;;;;;;2.83;1.75;;;;;;;;;;5023051;28;20043;-83
2022/12/18 05:42:14;;;;;;;2.50;1.77;;;;;;;;;;5019965;28;20072;-80
2022/12/18 05:44:39;;;;;;;1.77;1.40;;;;;;;;;;5021954;28;20039;-82
2022/12/18 05:47:05;;;;;;;5.63;2.28;;;;;;;;;;5017429;28;20631;-81
2022/12/18 05:49:30;;;;;;;3.50;1.95;;;;;;;;;;5019217;28;20083;-82
2022/12/18 05:51:55;;;;;;;4.03;1.67;;;;;;;;;;5016502;28;20665;-81
2022/12/18 05:54:21;;;;;;;1.52;1.05;;;;;;;;;;5022212;28;20071;-82
2022/12/18 05:56:47;;;;;;;1.38;1.00;;;;;;;;;;5018293;28;20033;-82
2022/12/18 05:59:12;;;;;;;4.72;2.60;;;;;;;;;;5019940;28;20036;-82
2022/12/18 06:01:38;;;;;;;6.13;3.28;;;;;;;;;;5017219;28;20556;-83
2022/12/18 06:04:03;;;;;;;2.75;2.03;;;;;;;;;;5021090;28;20109;-82
2022/12/18 06:06:29;;;;;;;4.10;2.75;;;;;;;;;;5018380;28;20389;-82
2022/12/18 06:08:55;;;;;;;5.68;3.83;;;;;;;;;;5021713;28;20030;-82
2022/12/18 06:11:26;;;;;;;3.92;3.05;;;;;;;;;;5020565;28;20030;-82
2022/12/18 06:13:53;;;;;;;4.93;2.88;;;;;;;;;;5018249;28;20030;-82
2022/12/18 06:16:18;;;;;;;5.90;3.83;;;;;;;;;;5016443;28;20021;-83
2022/12/18 06:18:43;;;;;;;3.75;1.85;;;;;;;;;;5020121;28;20079;-82
2022/12/18 06:21:09;;;;;;;4.35;2.22;;;;;;;;;;5019145;28;20032;-83
2022/12/18 06:23:35;;;;;;;1.80;1.60;;;;;;;;;;5019735;28;20033;-82
2022/12/18 06:26:06;;;;;;;3.58;2.15;;;;;;;;;;5020882;28;20032;-83
2022/12/18 06:28:31;;;;;;;3.97;2.28;;;;;;;;;;5017188;28;20494;-82
2022/12/18 06:30:57;;;;;;;3.65;2.03;;;;;;;;;;5018542;28;20033;-81
2022/12/18 06:33:26;;;;;;;2.17;1.45;;;;;;;;;;5017632;28;20044;-82
2022/12/18 06:35:52;;;;;;;2.63;1.13;;;;;;;;;;5018430;28;20042;-81
2022/12/18 06:38:17;;;;;;;6.00;3.28;;;;;;;;;;5019834;28;20033;-81
2022/12/18 06:40:43;;;;;;;5.38;2.28;;;;;;;;;;5019154;28;20029;-82
2022/12/18 06:43:08;;;;;;;3.15;1.77;;;;;;;;;;5021642;28;20045;-81
2022/12/18 06:45:34;;;;;;;2.22;1.55;;;;;;;;;;5019244;28;20384;-80
2022/12/18 06:47:59;;;;;;;1.58;1.20;;;;;;;;;;5021556;28;20046;-81
2022/12/18 06:50:25;;;;;;;2.28;1.30;;;;;;;;;;5015280;28;20363;-82
2022/12/18 06:52:50;;;;;;;1.58;1.27;;;;;;;;;;5021870;28;20465;-81
2022/12/18 06:55:15;;;;;;;4.47;2.22;;;;;;;;;;5024441;28;20026;-83
2022/12/18 06:57:41;;;;;;;2.22;1.80;;;;;;;;;;5021527;28;20029;-82
2022/12/18 07:00:07;;;;;;;4.68;2.30;;;;;;;;;;5024631;28;20065;-82
2022/12/18 07:02:33;;;;;;;4.85;2.65;;;;;;;;;;5022484;28;20018;-82
2022/12/18 07:04:59;;;;;;;3.33;2.35;;;;;;;;;;5021663;28;20496;-82
2022/12/18 07:07:24;;;;;;;3.35;2.55;;;;;;;;;;5020747;28;20034;-81
2022/12/18 07:09:50;;;;;;;4.22;2.38;;;;;;;;;;5021384;28;20052;-81
2022/12/18 07:12:16;;;;;;;3.92;2.22;;;;;;;;;;5022962;28;20037;-83
2022/12/18 07:14:42;;;;;;;4.03;2.55;;;;;;;;;;5019454;28;20378;-84
2022/12/18 07:17:07;;;;;;;1.90;1.42;;;;;;;;;;5024718;28;20021;-83
2022/12/18 07:19:33;;;;;;;4.65;2.25;;;;;;;;;;5020009;28;20104;-81
2022/12/18 07:21:58;;;;;;;3.15;1.92;;;;;;;;;;5018098;28;20026;-83
2022/12/18 07:24:24;;;;;;;3.08;2.42;;;;;;;;;;5022244;28;20129;-83
2022/12/18 07:26:49;;;;;;;1.95;1.38;;;;;;;;;;5023079;28;20064;-83
2022/12/18 07:29:15;;;;;;;3.85;1.95;;;;;;;;;;5025178;28;20381;-82
2022/12/18 07:31:40;;;;;;;3.17;1.98;;;;;;;;;;5020611;28;20450;-81
2022/12/18 07:34:10;;;;;;;1.95;1.60;;;;;;;;;;5026121;28;20022;-80
2022/12/18 07:36:36;;;;;;;4.38;2.97;;;;;;;;;;5020497;28;20366;-81
2022/12/18 07:39:01;;;;;;;4.85;3.08;;;;;;;;;;5021495;28;20040;-82
2022/12/18 07:41:27;;;;;;;6.07;1.73;;;;;;;;;;5018018;28;20050;-82
2022/12/18 07:43:52;;;;;;;2.33;1.67;;;;;;;;;;5022771;28;20029;-80
2022/12/18 07:46:18;;;;;;;3.88;1.77;;;;;;;;;;5018583;28;21090;-82
2022/12/18 07:48:44;;;;;;;2.47;1.65;;;;;;;;;;5020074;28;20052;-81
2022/12/18 07:51:12;;;;;;;3.30;2.30;;;;;;;;;;5019339;28;20466;-82
2022/12/18 07:53:38;;;;;;;3.17;2.15;;;;;;;;;;5014231;28;20388;-83
2022/12/18 07:56:06;;;;;;;2.55;1.90;;;;;;;;;;5016724;28;20037;-84
2022/12/18 07:58:32;;;;;;;2.58;2.00;;;;;;;;;;5015736;28;20076;-82
2022/12/18 08:01:05;;;;;;;11.45;5.20;;;;;;;;;;5018962;28;20414;-83
2022/12/18 08:03:30;;;;;;;2.55;1.90;;;;;;;;;;5017750;28;20034;-81
2022/12/18 08:06:04;;;;;;;3.35;1.48;;;;;;;;;;5018222;28;20033;-82
2022/12/18 08:08:30;;;;;;;4.43;2.25;;;;;;;;;;5025101;28;20033;-82
2022/12/18 08:10:58;;;;;;;5.50;2.33;;;;;;;;;;5023809;28;20192;-83
2022/12/18 08:13:24;;;;;;;3.58;2.08;;;;;;;;;;5018313;28;20494;-82
2022/12/18 08:15:57;;;;;;;2.70;2.15;;;;;;;;;;5021791;28;20527;-83
2022/12/18 08:18:23;;;;;;;4.22;2.33;;;;;;;;;;5015956;28;20485;-81
2022/12/18 08:20:48;;;;;;;5.53;3.08;;;;;;;;;;5018639;28;20160;-83
2022/12/18 08:23:14;;;;;;;8.60;3.72;;;;;;;;;;5019431;28;20045;-82
2022/12/18 08:25:39;;;;;;;4.90;2.78;;;;;;;;;;5019986;28;20044;-83
2022/12/18 08:28:05;;;;;;;6.07;3.47;;;;;;;;;;5019733;28;20032;-82
2022/12/18 08:30:30;;;;;;;4.72;2.78;;;;;;;;;;5020100;28;20053;-81
2022/12/18 08:32:55;;;;;;;7.95;4.03;;;;;;;;;;5025683;28;20029;-83
2022/12/18 08:35:21;;;;;;;7.10;2.85;;;;;;;;;;5017593;28;20037;-83
2022/12/18 08:37:46;;;;;;;2.92;2.22;;;;;;;;;;5023972;28;20057;-83
2022/12/18 08:40:12;;;;;;;7.50;3.08;;;;;;;;;;5020542;28;20036;-84
2022/12/18 08:45:24;;;;;;;5.15;3.50;;;;;;;;;;5012378;28;20035;-83
2022/12/18 08:47:49;;;;;;;17.60;12.95;;;;;;;;;;5019361;28;20044;-83
2022/12/18 08:50:15;;;;;;;8.35;4.05;;;;;;;;;;5017638;28;20485;-80
2022/12/18 08:52:40;;;;;;;3.78;2.90;;;;;;;;;;5023156;28;20035;-83
2022/12/18 08:55:07;;;;;;;7.53;3.90;;;;;;;;;;5018196;28;20442;-82
2022/12/18 08:57:32;;;;;;;7.47;3.45;;;;;;;;;;5017877;28;20044;-83
2022/12/18 08:59:57;;;;;;;7.30;4.07;;;;;;;;;;5015990;28;20025;-83
2022/12/18 09:02:23;;;;;;;6.30;3.63;;;;;;;;;;5022087;28;20022;-83
2022/12/18 09:04:48;;;;;;;6.47;4.00;;;;;;;;;;5018516;28;20108;-83
2022/12/18 09:07:14;;;;;;;8.85;3.80;;;;;;;;;;5026166;28;20029;-82
2022/12/18 09:09:39;;;;;;;4.15;3.28;;;;;;;;;;5020424;28;20034;-82
2022/12/18 09:12:05;;;;;;;5.35;3.55;;;;;;;;;;5020678;28;20184;-83
2022/12/18 09:14:30;;;;;;;12.95;5.38;;;;;;;;;;5018571;28;20103;-82
2022/12/18 09:16:55;;;;;;;4.93;4.05;;;;;;;;;;5016781;28;20555;-82
2022/12/18 09:19:21;;;;;;;6.25;3.88;;;;;;;;;;5021741;28;20133;-82
2022/12/18 09:21:46;;;;;;;7.72;4.40;;;;;;;;;;5015795;28;20033;-81
2022/12/18 09:24:13;;;;;;;4.32;3.20;;;;;;;;;;5025937;28;20029;-83
2022/12/18 09:26:39;;;;;;;10.00;5.22;;;;;;;;;;5023579;28;20037;-83
2022/12/18 09:29:06;;;;;;;6.13;3.42;;;;;;;;;;5015269;28;20026;-83
2022/12/18 09:31:32;;;;;;;8.07;4.47;;;;;;;;;;5008903;28;20519;-84
2022/12/18 09:33:59;;;;;;;8.20;4.32;;;;;;;;;;5026659;28;20108;-84
2022/12/18 09:36:24;;;;;;;6.75;4.72;;;;;;;;;;5018679;28;20033;-84
2022/12/18 09:38:50;;;;;;;6.00;4.15;;;;;;;;;;5024729;28;20514;-83
2022/12/18 09:41:40;;;;;;;4.55;3.22;;;;;;;;;;5020930;28;20061;-83
2022/12/18 09:44:32;;;;;;;6.05;3.13;;;;;;;;;;5017646;28;20041;-84
2022/12/18 09:47:03;;;;;;;11.05;6.63;;;;;;;;;;5015413;28;20025;-84
2022/12/18 09:49:33;;;;;;;10.02;5.32;;;;;;;;;;5021097;28;20040;-83
2022/12/18 09:52:08;;;;;;;9.77;4.93;;;;;;;;;;5022711;28;20432;-84
2022/12/18 09:54:38;;;;;;;4.68;3.40;;;;;;;;;;5016867;28;20033;-83
2022/12/18 09:57:04;;;;;;;6.10;3.58;;;;;;;;;;5018662;28;20088;-84
2022/12/18 09:59:36;;;;;;;5.22;4.20;;;;;;;;;;5020230;28;20029;-82
2022/12/18 10:02:18;;;;;;;5.82;3.70;;;;;;;;;;5017083;28;20100;-82
2022/12/18 10:04:49;;;;;;;10.07;5.82;;;;;;;;;;5019262;28;20033;-83
2022/12/18 10:07:32;;;;;;;5.50;3.95;;;;;;;;;;5014717;28;20117;-83
2022/12/18 10:10:10;;;;;;;8.88;4.18;;;;;;;;;;5018502;28;20056;-84
2022/12/18 10:13:17;;;;;;;4.97;3.25;;;;;;;;;;5022656;28;20026;-84
2022/12/18 10:16:11;;;;;;;4.97;2.92;;;;;;;;;;5020195;28;20543;-83
2022/12/18 10:19:17;;;;;;;4.88;2.92;;;;;;;;;;5019852;28;20071;-85
2022/12/18 10:22:04;;;;;;;6.57;4.15;;;;;;;;;;5011288;28;20049;-83
2022/12/18 10:24:54;;;;;;;4.10;3.25;;;;;;;;;;5012411;28;20109;-83
2022/12/18 10:27:25;;;;;;;10.45;4.93;;;;;;;;;;5014032;28;20060;-82
2022/12/18 10:29:52;;;;;;;5.10;3.42;;;;;;;;;;5018375;28;20025;-83
2022/12/18 10:32:25;;;;;;;7.45;4.57;;;;;;;;;;5009880;28;21575;-82
2022/12/18 10:34:55;;;;;;;6.78;4.32;;;;;;;;;;5014524;28;20029;-81
2022/12/18 10:37:27;;;;;;;7.47;3.83;;;;;;;;;;5012017;28;20026;-83
2022/12/18 10:40:16;;;;;;;9.20;4.38;;;;;;;;;;5019924;28;20081;-84
2022/12/18 10:42:43;;;;;;;8.50;4.45;;;;;;;;;;5017811;28;20053;-84
2022/12/18 10:45:15;;;;;;;6.10;3.60;;;;;;;;;;5011627;28;20367;-87
2022/12/18 10:47:46;;;;;;;6.57;3.58;;;;;;;;;;5015755;28;20022;-83
2022/12/18 10:50:32;;;;;;;9.10;4.55;;;;;;;;;;5019709;28;20354;-82
2022/12/18 10:53:04;;;;;;;5.82;2.97;;;;;;;;;;5012715;28;20037;-82
2022/12/18 10:55:34;;;;;;;8.80;3.15;;;;;;;;;;5015343;28;20026;-83
2022/12/18 10:58:26;;;;;;;6.88;4.40;;;;;;;;;;5011357;28;20576;-82
2022/12/18 11:01:15;;;;;;;7.65;4.05;;;;;;;;;;5012775;28;20049;-81
2022/12/18 11:03:42;;;;;;;;;;;;;;;;;;5014326;28;20037;-81
2022/12/18 11:06:22;;;;;;;5.20;2.55;;;;;;;;;;5010793;28;19921;-80
2022/12/18 11:09:20;;;;;;;4.28;2.95;;;;;;;;;;5011204;28;20355;-81
2022/12/18 11:11:54;;;;;;;8.00;3.08;;;;;;;;;;5005051;28;20042;-82
2022/12/18 11:14:26;;;;;;;5.85;2.97;;;;;;;;;;5014597;28;20040;-81
2022/12/18 11:16:53;;;;;;;4.15;2.45;;;;;;;;;;5017224;28;20393;-83
2022/12/18 11:19:27;;;;;;;5.82;3.60;;;;;;;;;;5028385;28;20104;-83
2022/12/18 11:21:53;;;;;;;9.55;4.43;;;;;;;;;;5015853;28;20115;-82
2022/12/18 11:24:35;;;;;;;5.25;3.55;;;;;;;;;;5007393;28;20463;-83
2022/12/18 11:27:03;;;;;;;2.83;2.03;;;;;;;;;;5012520;28;20041;-81
2022/12/18 11:29:33;;;;;;;1.17;1.05;;;;;;;;;;5016279;28;20042;-81
2022/12/18 11:32:16;;;;;;;;;;;;;;;;;;5006017;28;20064;-80
2022/12/18 11:34:49;;;;;;;6.35;3.67;;;;;;;;;;5014304;28;19953;-81
2022/12/18 11:37:19;;;;;;;4.97;2.13;;;;;;;;;;5009783;28;20729;-81
2022/12/18 11:40:01;;;;;;;8.95;4.72;;;;;;;;;;5016156;28;20413;-82
2022/12/18 11:42:35;;;;;;;3.90;2.90;;;;;;;;;;5013307;28;20117;-81
2022/12/18 11:45:13;;;;;;;3.55;2.92;;;;;;;;;;5016106;28;20116;-81
2022/12/18 11:47:57;;;;;;;2.17;1.63;;;;;;;;;;5023031;28;20054;-81
2022/12/18 11:50:31;;;;;;;5.07;3.25;;;;;;;;;;5018057;28;20053;-84
2022/12/18 11:52:57;;;;;;;3.00;1.38;;;;;;;;;;5021351;28;20416;-80
2022/12/18 11:55:41;;;;;;;4.43;2.30;;;;;;;;;;5023845;28;20029;-81
2022/12/18 11:58:28;;;;;;;4.88;2.55;;;;;;;;;;5022777;28;20417;-82
2022/12/18 12:01:14;;;;;;;5.05;2.65;;;;;;;;;;5022141;28;20635;-80
2022/12/18 12:03:52;;;;;;;3.63;2.05;;;;;;;;;;5024446;28;20466;-81
2022/12/18 12:06:44;;;;;;;2.67;1.98;;;;;;;;;;5014935;28;20168;-81
2022/12/18 12:09:37;;;;;;;2.70;2.38;;;;;;;;;;5019274;28;20026;-80
2022/12/18 12:12:11;;;;;;;3.50;2.38;;;;;;;;;;5021170;28;20448;-81
2022/12/18 12:14:45;;;;;;;5.47;3.13;;;;;;;;;;5020259;28;20525;-79
2022/12/18 12:17:33;;;;;;;3.90;2.60;;;;;;;;;;5018396;28;20076;-80
2022/12/18 12:20:14;;;;;;;3.78;2.58;;;;;;;;;;5014149;28;20021;-81
2022/12/18 12:22:43;;;;;;;4.20;2.33;;;;;;;;;;5018117;28;20061;-81
2022/12/18 12:25:36;;;;;;;3.95;2.80;;;;;;;;;;5019314;28;20029;-81
2022/12/18 12:28:11;;;;;;;6.50;3.90;;;;;;;;;;5019168;28;20034;-82
2022/12/18 12:31:08;;;;;;;4.32;2.83;;;;;;;;;;5019290;28;20025;-81
2022/12/18 12:33:52;;;;;;;4.35;2.38;;;;;;;;;;5021304;28;20478;-81
2022/12/18 12:36:32;;;;;;;4.68;3.10;;;;;;;;;;5025866;28;20052;-81
2022/12/18 12:39:03;;;;;;;7.18;4.60;;;;;;;;;;5022032;28;20025;-81
2022/12/18 12:44:30;;;;;;;7.22;3.88;;;;;;;;;;5020649;28;20044;-82
2022/12/18 12:47:00;;;;;;;4.45;2.70;;;;;;;;;;5019679;28;20469;-81
2022/12/18 12:49:28;;;;;;;4.65;2.75;;;;;;;;;;5018882;28;20038;-80
2022/12/18 12:52:21;;;;;;;4.95;3.42;;;;;;;;;;5025629;28;20065;-80
2022/12/18 12:54:47;;;;;;;4.28;3.33;;;;;;;;;;5023745;28;20125;-81
2022/12/18 12:57:23;;;;;;;8.00;3.03;;;;;;;;;;5025532;28;20041;-80
2022/12/18 13:00:03;;;;;;;10.05;4.68;;;;;;;;;;5023028;28;20509;-80
2022/12/18 13:02:56;;;;;;;5.65;3.55;;;;;;;;;;5021942;28;20036;-80
2022/12/18 13:05:50;;;;;;;4.18;3.13;;;;;;;;;;5014884;28;20033;-80
2022/12/18 13:08:28;;;;;;;5.50;3.17;;;;;;;;;;5018873;28;20037;-80
2022/12/18 13:13:49;;;;;;;5.28;3.65;;;;;;;;;;5018241;28;20033;-81
2022/12/18 13:16:19;;;;;;;5.80;4.07;;;;;;;;;;5016230;28;20056;-80
2022/12/18 13:18:58;;;;;;;8.13;4.10;;;;;;;;;;5026041;28;20020;-81
2022/12/18 13:21:28;;;;;;;4.97;2.90;;;;;;;;;;5016445;28;20045;-80
2022/12/18 13:23:55;;;;;;;6.85;3.22;;;;;;;;;;5020842;28;20271;-81
2022/12/18 13:26:23;;;;;;;8.80;3.28;;;;;;;;;;5014199;28;20033;-81
2022/12/18 13:28:56;;;;;;;9.45;4.45;;;;;;;;;;5025119;28;20025;-81
2022/12/18 13:31:40;;;;;;;3.22;2.90;;;;;;;;;;5019081;28;20513;-80
2022/12/18 13:34:30;;;;;;;5.07;2.55;;;;;;;;;;5017273;28;20025;-81
2022/12/18 13:37:17;;;;;;;11.52;5.35;;;;;;;;;;5017470;28;20034;-81
2022/12/18 13:39:43;;;;;;;6.13;3.72;;;;;;;;;;5016673;28;20014;-80
2022/12/18 13:42:08;;;;;;;4.30;3.38;;;;;;;;;;5022040;28;20040;-79
2022/12/18 13:44:39;;;;;;;8.50;5.00;;;;;;;;;;5018162;28;20100;-81
2022/12/18 13:47:28;;;;;;;8.48;4.63;;;;;;;;;;5015785;28;20497;-80
2022/12/18 13:49:54;;;;;;;7.85;4.07;;;;;;;;;;5018011;28;20393;-80
2022/12/18 13:52:28;;;;;;;7.82;4.20;;;;;;;;;;5016099;28;20033;-80
2022/12/18 13:54:56;;;;;;;10.15;3.50;;;;;;;;;;5023199;28;20417;-80
2022/12/18 13:57:38;;;;;;;7.93;4.15;;;;;;;;;;5017842;28;20370;-80
2022/12/18 14:00:22;;;;;;;6.43;3.30;;;;;;;;;;5027240;28;20132;-80
2022/12/18 14:02:48;;;;;;;7.65;3.38;;;;;;;;;;5021318;28;20044;-81
2022/12/18 14:05:34;;;;;;;6.82;4.28;;;;;;;;;;5022895;28;20037;-82
2022/12/18 14:08:09;;;;;;;6.32;3.58;;;;;;;;;;5017652;28;20474;-80
2022/12/18 14:10:39;;;;;;;9.38;5.65;;;;;;;;;;5013379;28;20038;-80
2022/12/18 14:13:08;;;;;;;14.32;4.85;;;;;;;;;;5018071;28;20545;-80
2022/12/18 14:15:44;;;;;;;8.07;5.40;;;;;;;;;;5011888;28;20470;-81
2022/12/18 14:18:13;;;;;;;8.93;5.13;;;;;;;;;;5017819;28;20101;-81
2022/12/18 14:20:46;;;;;;;9.63;4.90;;;;;;;;;;5020206;28;20037;-80
2022/12/18 14:23:32;;;;;;;6.50;5.00;;;;;;;;;;5018287;28;20021;-80
2022/12/18 14:25:59;;;;;;;5.40;3.88;;;;;;;;;;5021953;28;20083;-79
2022/12/18 14:28:25;;;;;;;7.00;5.30;;;;;;;;;;5012372;28;20108;-79
2022/12/18 14:30:51;;;;;;;5.25;3.72;;;;;;;;;;5014692;28;20120;-80
2022/12/18 14:33:19;;;;;;;8.90;5.13;;;;;;;;;;5023344;28;20541;-80
2022/12/18 14:35:57;;;;;;;6.75;3.67;;;;;;;;;;5024482;28;20088;-81
2022/12/18 14:38:39;;;;;;;3.58;3.05;;;;;;;;;;5020487;28;20032;-79
2022/12/18 14:41:15;;;;;;;7.82;4.28;;;;;;;;;;5013554;28;20022;-80
2022/12/18 14:43:43;;;;;;;5.68;3.88;;;;;;;;;;5020855;28;20495;-80
2022/12/18 14:46:37;;;;;;;6.18;3.72;;;;;;;;;;5015955;28;20032;-80
2022/12/18 14:49:26;;;;;;;5.55;3.47;;;;;;;;;;5023165;28;20034;-80
2022/12/18 14:52:04;;;;;;;8.40;4.83;;;;;;;;;;5016592;28;20036;-80
2022/12/18 14:54:31;;;;;;;5.47;3.03;;;;;;;;;;5015699;28;20269;-83
2022/12/18 14:57:15;;;;;;;6.43;3.95;;;;;;;;;;5024843;28;20026;-80
2022/12/18 14:59:40;;;;;;;6.60;3.75;;;;;;;;;;5014382;28;20493;-81
2022/12/18 15:02:28;;;;;;;6.32;3.83;;;;;;;;;;5014599;28;20069;-80
2022/12/18 15:05:24;;;;;;;10.95;5.07;;;;;;;;;;5014584;28;20025;-80
2022/12/18 15:07:52;;;;;;;9.70;4.32;;;;;;;;;;5008433;28;20190;-81
2022/12/18 15:10:21;;;;;;;5.05;3.60;;;;;;;;;;5011383;28;20029;-80
2022/12/18 15:12:49;;;;;;;7.30;4.15;;;;;;;;;;5017746;28;20064;-79
2022/12/18 15:15:33;;;;;;;9.90;5.20;;;;;;;;;;5010264;28;20041;-80
2022/12/18 15:17:59;;;;;;;6.03;2.85;;;;;;;;;;5016646;28;20021;-80